createdAt,value
2019-02-21T00:01:22.412Z,6.96
2019-02-21T00:03:51.840Z,6.93
2019-02-21T00:06:20.964Z,6.87
2019-02-21T00:08:50.081Z,6.73
2019-02-21T00:11:19.202Z,6.58
2019-02-21T00:13:48.316Z,6.38
2019-02-21T00:16:17.432Z,6.23
2019-02-21T00:18:46.550Z,6.20
2019-02-21T00:21:15.660Z,6.29
2019-02-21T00:23:44.786Z,6.11
2019-02-21T00:26:13.899Z,6.07
2019-02-21T00:28:43.027Z,6.14
2019-02-21T00:31:12.155Z,6.31
2019-02-21T00:33:41.274Z,6.44
2019-02-21T00:36:10.639Z,6.48
2019-02-21T00:38:39.759Z,6.44
2019-02-21T00:41:08.883Z,6.44
2019-02-21T00:43:37.999Z,6.53
2019-02-21T00:46:07.127Z,6.50
2019-02-21T00:48:36.241Z,6.54
2019-02-21T00:51:05.414Z,6.51
2019-02-21T00:53:34.525Z,6.49
2019-02-21T00:56:03.661Z,6.50
2019-02-21T00:58:33.013Z,6.56
2019-02-21T01:01:02.411Z,6.62
2019-02-21T01:03:31.515Z,6.69
2019-02-21T01:06:00.887Z,6.76
2019-02-21T01:08:30.299Z,6.79
2019-02-21T01:10:59.416Z,6.81
2019-02-21T01:13:29.007Z,6.75
2019-02-21T01:15:58.120Z,6.70
2019-02-21T01:18:27.243Z,6.64
2019-02-21T01:20:56.366Z,6.54
2019-02-21T01:23:25.493Z,6.55
2019-02-21T01:25:54.613Z,6.52
2019-02-21T01:28:23.732Z,6.49
2019-02-21T01:30:56.969Z,6.44
2019-02-21T01:33:23.677Z,6.34
2019-02-21T01:35:52.780Z,6.47
2019-02-21T01:38:21.903Z,6.35
2019-02-21T01:40:51.092Z,6.35
2019-02-21T01:43:20.212Z,6.40
2019-02-21T01:45:49.635Z,6.43
2019-02-21T01:48:18.770Z,6.25
2019-02-21T01:50:47.851Z,6.22
2019-02-21T01:53:16.986Z,6.26
2019-02-21T01:55:46.089Z,6.31
2019-02-21T01:58:16.206Z,6.35
2019-02-21T02:00:45.302Z,6.28
2019-02-21T02:03:14.472Z,6.29
2019-02-21T02:05:43.608Z,6.32
2019-02-21T02:08:12.762Z,6.32
2019-02-21T02:10:41.840Z,6.28
2019-02-21T02:13:23.800Z,6.17
2019-02-21T02:15:41.777Z,6.20
2019-02-21T02:18:10.893Z,6.20
2019-02-21T02:20:40.344Z,6.14
2019-02-21T02:23:09.473Z,6.10
2019-02-21T02:25:38.589Z,6.05
2019-02-21T02:28:07.713Z,5.97
2019-02-21T02:30:36.836Z,5.83
2019-02-21T02:33:06.051Z,5.80
2019-02-21T02:35:35.178Z,5.83
2019-02-21T02:38:04.303Z,5.89
2019-02-21T02:40:33.478Z,5.97
2019-02-21T02:43:02.551Z,5.95
2019-02-21T02:45:31.693Z,6.06
2019-02-21T02:48:01.029Z,6.02
2019-02-21T02:50:31.117Z,6.04
2019-02-21T02:53:00.248Z,6.03
2019-02-21T02:55:29.368Z,6.15
2019-02-21T02:57:58.741Z,6.22
2019-02-21T03:00:27.864Z,6.21
2019-02-21T03:02:57.023Z,6.25
2019-02-21T03:05:26.141Z,6.11
2019-02-21T03:07:55.264Z,6.20
2019-02-21T03:10:24.380Z,6.14
2019-02-21T03:12:53.501Z,6.09
2019-02-21T03:15:22.622Z,6.03
2019-02-21T03:17:51.761Z,6.13
2019-02-21T03:20:20.869Z,6.04
2019-02-21T03:22:49.987Z,6.07
2019-02-21T03:25:19.108Z,6.12
2019-02-21T03:27:48.228Z,6.10
2019-02-21T03:30:17.369Z,6.15
2019-02-21T03:32:46.487Z,6.05
2019-02-21T03:35:15.608Z,6.09
2019-02-21T03:37:44.730Z,6.14
2019-02-21T03:40:13.851Z,6.11
2019-02-21T03:42:42.970Z,6.09
2019-02-21T03:45:13.454Z,6.09
2019-02-21T03:47:44.603Z,6.04
2019-02-21T03:50:13.383Z,6.08
2019-02-21T03:52:42.499Z,5.95
2019-02-21T03:55:11.622Z,5.98
2019-02-21T03:57:40.744Z,6.04
2019-02-21T04:00:11.418Z,5.95
2019-02-21T04:02:40.776Z,6.04
2019-02-21T04:05:09.897Z,6.08
2019-02-21T04:07:39.016Z,6.14
2019-02-21T04:10:09.072Z,6.17
2019-02-21T04:12:38.200Z,6.14
2019-02-21T04:15:09.623Z,6.20
2019-02-21T04:17:38.741Z,6.23
2019-02-21T04:20:08.800Z,6.06
2019-02-21T04:22:37.918Z,6.00
2019-02-21T04:25:07.044Z,5.94
2019-02-21T04:27:36.163Z,5.71
2019-02-21T04:30:05.920Z,5.59
2019-02-21T04:32:35.051Z,5.48
2019-02-21T04:35:04.433Z,5.62
2019-02-21T04:37:33.564Z,5.64
2019-02-21T04:40:02.919Z,5.65
2019-02-21T04:42:32.041Z,5.64
2019-02-21T04:45:01.161Z,5.66
2019-02-21T04:47:30.354Z,5.50
2019-02-21T04:49:59.470Z,5.37
2019-02-21T04:52:28.604Z,5.30
2019-02-21T04:54:57.762Z,5.18
2019-02-21T04:57:26.889Z,5.16
2019-02-21T04:59:56.012Z,5.13
2019-02-21T05:02:29.269Z,5.11
2019-02-21T05:04:55.947Z,5.13
2019-02-21T05:07:25.078Z,5.21
2019-02-21T05:09:58.058Z,5.22
2019-02-21T05:12:25.024Z,5.27
2019-02-21T05:14:54.151Z,5.29
2019-02-21T05:17:23.269Z,5.14
2019-02-21T05:19:52.386Z,5.20
2019-02-21T05:22:21.798Z,5.22
2019-02-21T05:24:50.914Z,5.30
2019-02-21T05:27:21.671Z,5.30
2019-02-21T05:29:50.786Z,5.36
2019-02-21T05:32:40.219Z,5.39
2019-02-21T05:35:18.776Z,5.40
2019-02-21T05:37:52.193Z,5.40
2019-02-21T05:40:37.914Z,5.47
2019-02-21T05:43:15.097Z,5.38
2019-02-21T05:45:48.746Z,5.38
2019-02-21T05:48:25.472Z,5.39
2019-02-21T05:50:59.298Z,5.48
2019-02-21T05:53:29.394Z,5.50
2019-02-21T05:56:05.719Z,5.48
2019-02-21T05:58:42.348Z,5.41
2019-02-21T06:01:15.751Z,5.47
2019-02-21T06:03:50.567Z,5.51
2019-02-21T06:06:20.673Z,5.40
2019-02-21T06:08:51.323Z,5.42
2019-02-21T06:14:24.014Z,5.30
2019-02-21T06:17:03.937Z,5.10
2019-02-21T06:19:34.702Z,5.02
2019-02-21T06:22:11.020Z,4.98
2019-02-21T06:24:40.974Z,4.95
2019-02-21T06:27:12.370Z,5.06
2019-02-21T06:29:43.397Z,5.04
2019-02-21T06:32:14.502Z,5.15
2019-02-21T06:34:43.279Z,5.11
2019-02-21T06:37:12.790Z,5.08
2019-02-21T06:39:42.006Z,5.13
2019-02-21T06:42:11.126Z,5.11
2019-02-21T06:44:40.391Z,5.15
2019-02-21T06:47:09.561Z,5.18
2019-02-21T06:49:38.684Z,5.13
2019-02-21T06:52:07.798Z,5.07
2019-02-21T06:54:36.917Z,5.02
2019-02-21T06:57:06.052Z,4.98
2019-02-21T06:59:43.357Z,5.01
2019-02-21T07:02:06.036Z,5.03
2019-02-21T07:04:35.170Z,5.15
2019-02-21T07:07:04.276Z,5.08
2019-02-21T07:09:33.394Z,5.12
2019-02-21T07:12:02.832Z,5.14
2019-02-21T07:14:34.415Z,5.19
2019-02-21T07:17:03.063Z,5.22
2019-02-21T07:19:32.188Z,5.24
2019-02-21T07:22:01.310Z,5.26
2019-02-21T07:24:30.986Z,5.29
2019-02-21T07:27:00.382Z,5.34
2019-02-21T07:29:30.510Z,5.38
2019-02-21T07:31:59.927Z,5.36
2019-02-21T07:34:30.486Z,5.47
2019-02-21T07:36:59.727Z,5.59
2019-02-21T07:39:36.187Z,5.59
2019-02-21T07:41:59.665Z,5.65
2019-02-21T07:44:28.783Z,5.71
2019-02-21T07:46:57.903Z,5.71
2019-02-21T07:49:27.034Z,5.80
2019-02-21T07:51:56.466Z,5.88
2019-02-21T07:54:25.596Z,5.90
2019-02-21T07:56:54.720Z,5.89
2019-02-21T07:59:23.838Z,5.98
2019-02-21T08:01:52.968Z,5.97
2019-02-21T08:04:22.091Z,5.96
2019-02-21T08:06:55.426Z,5.96
2019-02-21T08:09:23.134Z,6.06
2019-02-21T08:11:52.245Z,6.17
2019-02-21T08:14:21.362Z,6.29
2019-02-21T08:16:50.490Z,6.44
2019-02-21T08:19:19.607Z,6.45
2019-02-21T08:21:48.905Z,6.49
2019-02-21T08:24:18.034Z,6.54
2019-02-21T08:26:47.295Z,6.63
2019-02-21T08:29:16.398Z,6.78
2019-02-21T08:31:45.538Z,6.78
2019-02-21T08:34:16.294Z,6.85
2019-02-21T08:36:45.414Z,6.95
2019-02-21T08:39:14.578Z,6.89
2019-02-21T08:41:43.703Z,6.89
2019-02-21T08:44:12.826Z,6.97
2019-02-21T08:46:41.955Z,7.04
2019-02-21T08:49:11.108Z,7.10
2019-02-21T08:51:40.299Z,7.16
2019-02-21T08:54:11.385Z,7.12
2019-02-21T08:56:40.240Z,7.18
2019-02-21T08:59:09.606Z,7.22
2019-02-21T09:01:38.724Z,7.22
2019-02-21T09:04:13.591Z,7.29
2019-02-21T09:06:38.675Z,7.32
2019-02-21T09:09:07.849Z,7.36
2019-02-21T09:11:37.128Z,7.43
2019-02-21T09:14:06.257Z,7.42
2019-02-21T09:16:35.376Z,7.51
2019-02-21T09:19:04.507Z,7.60
2019-02-21T09:21:35.001Z,7.72
2019-02-21T09:24:04.363Z,7.83
2019-02-21T09:26:34.780Z,7.93
2019-02-21T09:29:03.859Z,8.06
2019-02-21T09:31:33.216Z,8.12
2019-02-21T09:34:02.347Z,8.22
2019-02-21T09:36:31.701Z,8.32
2019-02-21T09:39:00.822Z,8.40
2019-02-21T09:41:32.164Z,8.49
2019-02-21T09:44:01.478Z,8.57
2019-02-21T09:46:30.912Z,8.65
2019-02-21T09:49:02.845Z,8.65
2019-02-21T09:51:31.078Z,8.77
2019-02-21T09:54:00.439Z,8.86
2019-02-21T09:56:30.869Z,8.92
2019-02-21T09:59:00.051Z,8.82
2019-02-21T10:01:29.405Z,8.87
2019-02-21T10:03:58.526Z,8.99
2019-02-21T10:06:27.653Z,8.98
2019-02-21T10:08:56.772Z,9.07
2019-02-21T10:11:25.891Z,9.04
2019-02-21T10:13:55.022Z,9.11
2019-02-21T10:16:24.137Z,9.17
2019-02-21T10:18:53.262Z,9.19
2019-02-21T10:21:22.382Z,9.17
2019-02-21T10:23:51.496Z,9.16
2019-02-21T10:26:20.633Z,9.20
2019-02-21T10:28:50.001Z,9.27
2019-02-21T10:31:19.134Z,9.32
2019-02-21T10:33:48.251Z,9.43
2019-02-21T10:36:17.378Z,9.59
2019-02-21T10:38:46.500Z,9.71
2019-02-21T10:41:15.626Z,9.82
2019-02-21T10:43:44.744Z,9.87
2019-02-21T10:46:14.101Z,9.92
2019-02-21T10:48:43.223Z,9.99
2019-02-21T10:51:12.354Z,10.06
2019-02-21T10:53:41.479Z,10.15
2019-02-21T10:56:10.626Z,10.45
2019-02-21T10:58:40.714Z,10.88
2019-02-21T11:01:09.848Z,11.42
2019-02-21T11:03:38.971Z,12.03
2019-02-21T11:06:08.103Z,12.34
2019-02-21T11:08:37.460Z,12.99
2019-02-21T11:11:06.598Z,13.76
2019-02-21T11:13:35.739Z,14.78
2019-02-21T11:16:04.848Z,15.44
2019-02-21T11:18:33.972Z,16.85
2019-02-21T11:21:03.106Z,17.11
2019-02-21T11:23:32.229Z,18.04
2019-02-21T11:26:01.360Z,19.05
2019-02-21T11:28:30.493Z,20.44
2019-02-21T11:30:59.685Z,21.68
2019-02-21T11:33:28.817Z,21.95
2019-02-21T11:35:57.917Z,22.36
2019-02-21T11:38:27.065Z,21.65
2019-02-21T11:40:56.172Z,19.87
2019-02-21T11:43:25.322Z,19.13
2019-02-21T11:45:57.376Z,18.35
2019-02-21T11:48:25.275Z,17.97
2019-02-21T11:50:54.633Z,17.79
2019-02-21T11:53:23.761Z,17.39
2019-02-21T11:55:52.882Z,17.76
2019-02-21T11:58:22.013Z,16.21
2019-02-21T12:00:51.135Z,16.10
2019-02-21T12:03:21.316Z,16.04
2019-02-21T12:05:50.568Z,15.84
2019-02-21T12:08:19.695Z,16.11
2019-02-21T12:10:50.905Z,15.88
2019-02-21T12:13:19.647Z,16.05
2019-02-21T12:15:48.774Z,16.65
2019-02-21T12:18:18.149Z,17.77
2019-02-21T12:20:47.253Z,18.92
2019-02-21T12:23:17.798Z,18.28
2019-02-21T12:25:46.979Z,19.62
2019-02-21T12:28:16.103Z,21.78
2019-02-21T12:30:45.223Z,23.18
2019-02-21T12:33:14.384Z,22.39
2019-02-21T12:35:43.711Z,21.74
2019-02-21T12:38:12.856Z,20.34
2019-02-21T12:40:41.962Z,18.48
2019-02-21T12:43:11.114Z,17.89
2019-02-21T12:45:40.227Z,17.45
2019-02-21T12:48:09.358Z,16.07
2019-02-21T12:50:44.393Z,15.89
2019-02-21T12:53:09.314Z,15.68
2019-02-21T12:55:38.435Z,15.28
2019-02-21T12:58:07.622Z,15.67
2019-02-21T13:00:36.746Z,15.91
2019-02-21T13:03:05.823Z,14.52
2019-02-21T13:05:40.915Z,14.47
2019-02-21T13:08:05.789Z,14.63
2019-02-21T13:10:35.135Z,14.65
2019-02-21T13:13:04.220Z,15.26
2019-02-21T13:15:33.583Z,14.92
2019-02-21T13:18:02.712Z,15.05
2019-02-21T13:20:31.839Z,14.65
2019-02-21T13:23:01.198Z,14.15
2019-02-21T13:25:30.609Z,13.72
2019-02-21T13:27:59.933Z,13.59
2019-02-21T13:30:29.062Z,13.51
2019-02-21T13:32:58.184Z,13.76
2019-02-21T13:35:29.275Z,13.68
2019-02-21T13:37:58.131Z,13.87
2019-02-21T13:40:27.270Z,13.70
2019-02-21T13:42:56.391Z,13.84
2019-02-21T13:45:25.750Z,13.76
2019-02-21T13:47:54.871Z,13.77
2019-02-21T13:50:24.060Z,13.77
2019-02-21T13:52:53.141Z,13.70
2019-02-21T13:55:22.276Z,13.72
2019-02-21T13:57:51.403Z,13.92
2019-02-21T14:00:21.903Z,13.72
2019-02-21T14:02:51.026Z,13.81
2019-02-21T14:05:20.153Z,13.87
2019-02-21T14:07:50.103Z,13.99
2019-02-21T14:10:19.227Z,13.88
2019-02-21T14:12:48.596Z,14.16
2019-02-21T14:15:20.723Z,14.36
2019-02-21T14:17:49.898Z,14.49
2019-02-21T14:20:19.003Z,14.56
2019-02-21T14:22:48.123Z,14.90
2019-02-21T14:25:17.263Z,15.07
2019-02-21T14:27:46.618Z,15.00
2019-02-21T14:30:19.848Z,14.86
2019-02-21T14:32:48.970Z,14.60
2019-02-21T14:35:18.116Z,14.80
2019-02-21T14:37:47.234Z,14.81
2019-02-21T14:40:17.099Z,14.92
2019-02-21T14:42:46.226Z,14.69
2019-02-21T14:45:23.640Z,14.83
2019-02-21T14:47:52.761Z,14.96
2019-02-21T14:50:21.883Z,14.82
2019-02-21T14:52:51.011Z,14.68
2019-02-21T14:55:20.374Z,14.39
2019-02-21T14:57:49.516Z,14.36
2019-02-21T15:00:26.728Z,13.99
2019-02-21T15:02:57.754Z,13.98
2019-02-21T15:05:27.837Z,14.18
2019-02-21T15:07:56.967Z,14.20
2019-02-21T15:10:26.091Z,14.34
2019-02-21T15:12:55.460Z,14.39
2019-02-21T15:15:26.494Z,14.30
2019-02-21T15:18:06.577Z,14.51
2019-02-21T15:20:36.189Z,14.56
2019-02-21T15:22:57.272Z,14.50
2019-02-21T15:25:26.402Z,14.35
2019-02-21T15:27:55.535Z,14.27
2019-02-21T15:30:27.328Z,13.96
2019-02-21T15:32:56.460Z,13.87
2019-02-21T15:35:25.591Z,13.77
2019-02-21T15:37:54.726Z,13.71
2019-02-21T15:40:24.087Z,13.66
2019-02-21T15:42:53.238Z,13.35
2019-02-21T15:45:29.477Z,13.38
2019-02-21T15:47:58.607Z,13.19
2019-02-21T15:50:27.735Z,13.20
2019-02-21T15:52:57.194Z,13.17
2019-02-21T15:55:26.331Z,13.01
2019-02-21T15:58:03.820Z,13.07
2019-02-21T16:00:26.284Z,13.12
2019-02-21T16:02:55.415Z,13.19
2019-02-21T16:05:24.574Z,13.13
2019-02-21T16:07:53.689Z,13.10
2019-02-21T16:10:25.227Z,13.07
2019-02-21T16:12:54.640Z,13.08
2019-02-21T16:15:24.032Z,13.18
2019-02-21T16:17:53.147Z,13.10
2019-02-21T16:20:22.280Z,13.02
2019-02-21T16:22:51.436Z,13.03
2019-02-21T16:25:31.643Z,13.03
2019-02-21T16:28:00.783Z,13.10
2019-02-21T16:30:29.898Z,12.94
2019-02-21T16:32:59.059Z,12.85
2019-02-21T16:35:28.184Z,12.95
2019-02-21T16:37:57.317Z,12.98
2019-02-21T16:40:26.447Z,12.97
2019-02-21T16:42:56.549Z,12.87
2019-02-21T16:45:25.674Z,12.90
2019-02-21T16:47:54.810Z,12.87
2019-02-21T16:50:29.717Z,12.73
2019-02-21T16:52:54.762Z,12.72
2019-02-21T16:55:24.626Z,12.69
2019-02-21T16:57:53.988Z,12.67
2019-02-21T17:00:23.852Z,12.82
2019-02-21T17:02:52.987Z,12.76
2019-02-21T17:05:22.108Z,12.76
2019-02-21T17:07:51.235Z,12.68
2019-02-21T17:10:20.354Z,12.75
2019-02-21T17:12:49.525Z,12.76
2019-02-21T17:15:18.967Z,12.57
2019-02-21T17:17:48.082Z,12.44
2019-02-21T17:20:21.654Z,12.36
2019-02-21T17:22:50.773Z,12.28
2019-02-21T17:25:19.902Z,12.12
2019-02-21T17:27:50.819Z,12.14
2019-02-21T17:30:20.255Z,12.16
2019-02-21T17:32:49.375Z,12.06
2019-02-21T17:35:18.497Z,12.00
2019-02-21T17:37:47.718Z,11.88
2019-02-21T17:40:22.496Z,11.87
2019-02-21T17:42:51.623Z,11.78
2019-02-21T17:45:20.758Z,11.76
2019-02-21T17:47:49.885Z,11.60
2019-02-21T17:50:19.983Z,11.50
2019-02-21T17:52:49.383Z,11.46
2019-02-21T17:55:18.588Z,11.48
2019-02-21T17:57:47.715Z,11.51
2019-02-21T18:00:23.202Z,11.56
2019-02-21T18:02:52.343Z,11.48
2019-02-21T18:05:21.466Z,11.55
2019-02-21T18:07:50.841Z,11.59
2019-02-21T18:10:19.963Z,11.55
2019-02-21T18:12:49.085Z,11.64
2019-02-21T18:15:18.461Z,11.69
2019-02-21T18:17:47.586Z,11.73
2019-02-21T18:20:16.795Z,11.54
2019-02-21T18:22:45.970Z,11.70
2019-02-21T18:25:18.453Z,11.70
2019-02-21T18:27:47.648Z,11.68
2019-02-21T18:30:17.495Z,11.66
2019-02-21T18:32:46.854Z,11.71
2019-02-21T18:35:15.985Z,11.75
2019-02-21T18:37:47.689Z,11.75
2019-02-21T18:40:23.660Z,11.82
2019-02-21T18:42:53.012Z,11.75
2019-02-21T18:45:22.143Z,11.82
2019-02-21T18:47:52.232Z,11.71
2019-02-21T18:50:21.595Z,11.73
2019-02-21T18:52:50.717Z,11.77
2019-02-21T18:55:19.860Z,11.84
2019-02-21T18:57:48.980Z,11.84
2019-02-21T19:00:22.446Z,11.88
2019-02-21T19:02:51.806Z,11.86
2019-02-21T19:05:21.484Z,11.79
2019-02-21T19:07:59.629Z,11.81
2019-02-21T19:10:22.487Z,11.72
2019-02-21T19:12:51.610Z,11.70
2019-02-21T19:15:21.667Z,11.63
2019-02-21T19:17:50.803Z,11.67
2019-02-21T19:20:21.184Z,11.65
2019-02-21T19:22:50.294Z,11.65
2019-02-21T19:25:19.426Z,11.61
2019-02-21T19:27:48.546Z,11.68
2019-02-21T19:30:25.664Z,11.71
2019-02-21T19:32:54.558Z,11.61
2019-02-21T19:35:23.722Z,11.59
2019-02-21T19:37:52.844Z,11.63
2019-02-21T19:40:21.975Z,11.67
2019-02-21T19:42:52.309Z,11.65
2019-02-21T19:45:21.677Z,11.58
2019-02-21T19:47:51.051Z,11.53
2019-02-21T19:50:20.163Z,11.37
2019-02-21T19:52:49.297Z,11.28
2019-02-21T19:55:18.650Z,11.24
2019-02-21T19:57:47.774Z,11.13
2019-02-21T20:00:24.091Z,11.07
2019-02-21T20:02:53.529Z,10.86
2019-02-21T20:05:22.724Z,10.90
2019-02-21T20:07:51.858Z,10.83
2019-02-21T20:10:20.985Z,10.78
2019-02-21T20:12:50.115Z,10.69
2019-02-21T20:15:19.257Z,10.66
2019-02-21T20:17:48.382Z,10.74
2019-02-21T20:20:19.759Z,10.65
2019-02-21T20:22:48.906Z,10.67
2019-02-21T20:25:18.014Z,10.79
2019-02-21T20:27:47.210Z,10.87
2019-02-21T20:30:17.590Z,10.80
2019-02-21T20:32:46.772Z,10.73
2019-02-21T20:35:16.142Z,10.68
2019-02-21T20:37:45.286Z,10.74
2019-02-21T20:40:14.632Z,10.59
2019-02-21T20:42:43.843Z,10.39
2019-02-21T20:45:14.105Z,10.45
2019-02-21T20:47:43.238Z,10.24
2019-02-21T20:50:12.600Z,10.25
2019-02-21T20:52:41.733Z,10.17
2019-02-21T20:55:11.410Z,10.10
2019-02-21T20:57:40.542Z,10.16
2019-02-21T21:00:15.343Z,10.17
2019-02-21T21:02:45.991Z,10.11
2019-02-21T21:05:15.136Z,10.07
2019-02-21T21:07:44.567Z,10.15
2019-02-21T21:10:16.051Z,10.26
2019-02-21T21:12:45.173Z,10.15
2019-02-21T21:15:14.766Z,10.19
2019-02-21T21:17:43.900Z,10.22
2019-02-21T21:20:16.847Z,10.29
2019-02-21T21:22:45.316Z,10.26
2019-02-21T21:25:15.799Z,10.28
2019-02-21T21:27:44.976Z,10.34
2019-02-21T21:30:16.224Z,10.39
2019-02-21T21:32:45.426Z,10.27
2019-02-21T21:35:14.547Z,10.36
2019-02-21T21:37:43.743Z,10.37
2019-02-21T21:40:17.733Z,10.41
2019-02-21T21:42:46.864Z,10.51
2019-02-21T21:45:18.790Z,10.56
2019-02-21T21:47:47.931Z,10.46
2019-02-21T21:50:18.393Z,10.44
2019-02-21T21:52:47.699Z,10.43
2019-02-21T21:55:16.829Z,10.44
2019-02-21T21:57:45.951Z,10.46
2019-02-21T22:00:20.549Z,10.47
2019-02-21T22:02:49.702Z,10.45
2019-02-21T22:05:18.827Z,10.44
2019-02-21T22:07:49.399Z,10.43
2019-02-21T22:10:18.986Z,10.27
2019-02-21T22:12:48.113Z,10.29
2019-02-21T22:15:25.241Z,10.16
2019-02-21T22:17:54.496Z,10.23
2019-02-21T22:20:23.855Z,10.11
2019-02-21T22:22:52.979Z,10.05
2019-02-21T22:25:22.341Z,10.07
2019-02-21T22:27:51.461Z,10.10
2019-02-21T22:30:20.973Z,10.07
2019-02-21T22:32:50.100Z,10.18
2019-02-21T22:35:19.463Z,10.19
2019-02-21T22:37:48.588Z,10.07
2019-02-21T22:40:18.954Z,10.14
2019-02-21T22:42:48.081Z,10.23
2019-02-21T22:45:17.236Z,10.29
2019-02-21T22:47:46.343Z,10.23
2019-02-21T22:50:16.824Z,10.10
2019-02-21T22:52:45.937Z,10.22
2019-02-21T22:55:15.071Z,10.21
2019-02-21T22:57:44.220Z,10.32
2019-02-21T23:00:48.079Z,10.18
2019-02-21T23:03:18.819Z,10.17
2019-02-21T23:06:13.137Z,10.06
2019-02-21T23:08:44.857Z,10.24
2019-02-21T23:11:13.986Z,10.23
2019-02-21T23:13:43.108Z,10.20
2019-02-21T23:16:12.240Z,10.03
2019-02-21T23:18:41.358Z,9.99
2019-02-21T23:21:11.586Z,10.06
2019-02-21T23:23:41.042Z,10.05
2019-02-21T23:26:10.239Z,10.07
2019-02-21T23:28:39.363Z,10.05
2019-02-21T23:31:08.740Z,10.04
2019-02-21T23:33:39.501Z,10.08
2019-02-21T23:36:08.623Z,10.07
2019-02-21T23:38:37.746Z,10.05
2019-02-21T23:41:06.871Z,10.04
2019-02-21T23:43:35.992Z,9.96
2019-02-21T23:46:05.116Z,10.05
2019-02-21T23:48:34.244Z,10.08
2019-02-21T23:51:03.365Z,9.97
2019-02-21T23:53:32.495Z,10.05
2019-02-21T23:56:01.623Z,10.01
2019-02-21T23:58:30.756Z,10.00
